Weather Underground History page Text

Daily Summary for August 21, 2017 Units:  English    Metric   Both
« Previous Day
Next Day »
Daily Weekly Monthly Yearly Custom
  Current: High: Low: Average:
Temperature: 81.4 °F 81.4 °F 77.3 °F 79 °F
Dew Point: 77.5 °F 77.8 °F 75.8 °F 77 °F
Humidity: 88 % 95 % 88 % 94 %
Wind Speed: 3.5 mph 6.9 mph 0.0 mph 2 mph
Wind Gust: 3.5 mph 6.9 mph - -
Wind:ENE - - East
Pressure: 30.06 in 30.09 in 30.02 in -
Precipitation: 0.00 in      
Historical Graphs
 
 
Tabular Data for August 21, 2017
Time Temperature Dew Point Pressure Wind Wind Speed Wind Gust Humidity Rainfall Rate (Hourly) solar Conditions
00:04 80.4 °F 77.5 °F 30.08 in East 2.3 mph 2.3 mph 91 % 0.00 in 0.0 W/m2 RA
00:09 80.4 °F 77.5 °F 30.09 in East 2.3 mph 2.3 mph 91 % 0.00 in 0.0 W/m2 RA
00:14 80.4 °F 77.5 °F 30.09 in Calm     91 % 0.00 in 0.0 W/m2 CLR
00:19 80.4 °F 77.5 °F 30.09 in East 2.0 mph 2.0 mph 91 % 0.00 in 0.0 W/m2 CLR
00:24 80.3 °F 77.4 °F 30.09 in East 4.6 mph 4.6 mph 91 % 0.00 in 0.0 W/m2 CLR
00:29 80.3 °F 77.4 °F 30.08 in ENE 3.5 mph 3.5 mph 91 % 0.00 in 0.0 W/m2 CLR
00:34 80.3 °F 77.4 °F 30.08 in ENE 3.5 mph 3.5 mph 91 % 0.00 in 0.0 W/m2 CLR
00:39 80.3 °F 77.8 °F 30.08 in East 3.5 mph 3.5 mph 92 % 0.00 in 0.0 W/m2 CLR
00:44 80.3 °F 77.8 °F 30.08 in ENE 4.6 mph 4.6 mph 92 % 0.00 in 0.0 W/m2 CLR
00:49 80.3 °F 77.8 °F 30.08 in SE 3.5 mph 3.5 mph 92 % 0.00 in 0.0 W/m2 CLR
00:54 80.3 °F 77.8 °F 30.08 in ENE 3.5 mph 3.5 mph 92 % 0.00 in 0.0 W/m2 CLR
00:59 80.3 °F 77.8 °F 30.07 in ENE 3.5 mph 3.5 mph 92 % 0.00 in 0.0 W/m2 CLR
01:04 80.3 °F 77.8 °F 30.07 in ENE 2.3 mph 2.3 mph 92 % 0.00 in 0.0 W/m2 CLR
01:09 80.3 °F 77.8 °F 30.07 in ENE 3.5 mph 3.5 mph 92 % 0.00 in 0.0 W/m2 CLR
01:14 80.2 °F 77.7 °F 30.07 in ENE 3.5 mph 3.5 mph 92 % 0.00 in 0.0 W/m2 CLR
01:19 80.2 °F 77.7 °F 30.07 in ENE 2.3 mph 2.3 mph 92 % 0.00 in 0.0 W/m2 CLR
01:20 80.2 °F 77.7 °F 30.07 in ENE 2.3 mph 2.3 mph 92 % 0.00 in 0.0 W/m2 CLR
01:25 80.1 °F 77.6 °F 30.06 in NE 2.3 mph 2.3 mph 92 % 0.00 in 0.0 W/m2 CLR
01:30 80.0 °F 77.5 °F 30.06 in Calm     92 % 0.00 in 0.0 W/m2 CLR
01:35 80.0 °F 77.5 °F 30.06 in Calm     92 % 0.00 in 0.0 W/m2 CLR
01:40 79.9 °F 77.7 °F 30.06 in NE 3.5 mph 3.5 mph 93 % 0.00 in 0.0 W/m2 CLR
01:45 79.9 °F 77.7 °F 30.06 in ENE 3.5 mph 3.5 mph 93 % 0.00 in 0.0 W/m2 CLR
01:50 79.8 °F 77.6 °F 30.05 in ENE 3.0 mph 3.0 mph 93 % 0.00 in 0.0 W/m2 CLR
01:55 79.8 °F 77.6 °F 30.05 in ENE 3.5 mph 3.5 mph 93 % 0.00 in 0.0 W/m2 CLR
02:00 79.8 °F 77.6 °F 30.05 in ENE 1.2 mph 1.2 mph 93 % 0.00 in 0.0 W/m2 CLR
02:05 79.8 °F 77.6 °F 30.05 in Calm     93 % 0.00 in 0.0 W/m2 CLR
02:10 79.8 °F 77.6 °F 30.05 in Calm     93 % 0.00 in 0.0 W/m2 CLR
02:15 79.7 °F 77.8 °F 30.05 in Calm     94 % 0.00 in 0.0 W/m2 CLR
02:20 79.7 °F 77.8 °F 30.05 in NE 3.5 mph 3.5 mph 94 % 0.00 in 0.0 W/m2 CLR
02:25 79.7 °F 77.8 °F 30.05 in NE 2.3 mph 2.3 mph 94 % 0.00 in 0.0 W/m2 CLR
02:30 79.7 °F 77.8 °F 30.05 in NE 1.2 mph 1.2 mph 94 % 0.00 in 0.0 W/m2 CLR
02:35 79.7 °F 77.8 °F 30.04 in Calm     94 % 0.00 in 0.0 W/m2 CLR
02:40 79.6 °F 77.7 °F 30.04 in NE 3.5 mph 3.5 mph 94 % 0.00 in 0.0 W/m2 CLR
02:45 79.6 °F 77.7 °F 30.04 in NE 2.3 mph 2.3 mph 94 % 0.00 in 0.0 W/m2 CLR
02:50 79.5 °F 77.6 °F 30.04 in Calm     94 % 0.00 in 0.0 W/m2 CLR
02:55 79.4 °F 77.5 °F 30.04 in NE 2.3 mph 2.3 mph 94 % 0.00 in 0.0 W/m2 CLR
03:00 79.3 °F 77.4 °F 30.03 in NE 3.5 mph 3.5 mph 94 % 0.00 in 0.0 W/m2 CLR
03:05 79.3 °F 77.4 °F 30.03 in NE 3.5 mph 3.5 mph 94 % 0.00 in 0.0 W/m2 CLR
03:10 79.2 °F 77.3 °F 30.03 in Calm     94 % 0.00 in 0.0 W/m2 CLR
03:15 79.2 °F 77.3 °F 30.03 in Calm     94 % 0.00 in 0.0 W/m2 CLR
03:20 79.2 °F 77.6 °F 30.03 in Calm     95 % 0.00 in 0.0 W/m2 CLR
03:25 79.1 °F 77.5 °F 30.03 in Calm     95 % 0.00 in 0.0 W/m2 CLR
03:30 79.1 °F 77.5 °F 30.03 in Calm     95 % 0.00 in 0.0 W/m2 CLR
03:35 79.0 °F 77.4 °F 30.03 in Calm     95 % 0.00 in 0.0 W/m2 CLR
03:40 78.9 °F 77.3 °F 30.03 in Calm     95 % 0.00 in 0.0 W/m2 CLR
03:45 78.9 °F 77.3 °F 30.03 in Calm     95 % 0.00 in 0.0 W/m2 CLR
03:50 78.8 °F 77.2 °F 30.02 in Calm     95 % 0.00 in 0.0 W/m2 CLR
03:55 78.7 °F 77.1 °F 30.02 in Calm     95 % 0.00 in 0.0 W/m2 CLR
04:00 78.7 °F 77.1 °F 30.02 in Calm     95 % 0.00 in 0.0 W/m2 CLR
04:05 78.6 °F 77.0 °F 30.02 in Calm     95 % 0.00 in 0.0 W/m2 CLR
04:10 78.5 °F 76.9 °F 30.02 in Calm     95 % 0.00 in 0.0 W/m2 CLR
04:15 78.4 °F 76.8 °F 30.02 in Calm     95 % 0.00 in 0.0 W/m2 CLR
04:20 78.3 °F 76.7 °F 30.02 in Calm     95 % 0.00 in 0.0 W/m2 CLR
04:25 78.3 °F 76.7 °F 30.02 in Calm     95 % 0.00 in 0.0 W/m2 CLR
04:30 78.2 °F 76.6 °F 30.03 in Calm     95 % 0.00 in 0.0 W/m2 CLR
04:35 78.1 °F 76.6 °F 30.03 in Calm     95 % 0.00 in 0.0 W/m2 CLR
04:40 78.0 °F 76.5 °F 30.03 in Calm     95 % 0.00 in 0.0 W/m2 CLR
04:45 77.9 °F 76.4 °F 30.02 in Calm     95 % 0.00 in 0.0 W/m2 CLR
04:50 77.9 °F 76.4 °F 30.02 in Calm     95 % 0.00 in 0.0 W/m2 CLR
04:55 77.8 °F 76.3 °F 30.02 in Calm     95 % 0.00 in 0.0 W/m2 CLR
05:00 77.7 °F 76.2 °F 30.02 in Calm     95 % 0.00 in 0.0 W/m2 CLR
05:05 77.7 °F 76.2 °F 30.02 in Calm     95 % 0.00 in 0.0 W/m2 CLR
05:10 77.6 °F 76.1 °F 30.02 in Calm     95 % 0.00 in 0.0 W/m2 CLR
05:15 77.6 °F 76.1 °F 30.02 in Calm     95 % 0.00 in 0.0 W/m2 CLR
05:20 77.5 °F 76.0 °F 30.02 in Calm     95 % 0.00 in 0.0 W/m2 CLR
05:25 77.5 °F 76.0 °F 30.02 in SE 1.2 mph 1.2 mph 95 % 0.00 in 0.0 W/m2 CLR
05:30 77.5 °F 76.0 °F 30.02 in SE 1.2 mph 1.2 mph 95 % 0.00 in 0.0 W/m2 CLR
05:35 77.4 °F 75.9 °F 30.02 in ESE 2.3 mph 2.3 mph 95 % 0.00 in 0.0 W/m2 CLR
05:40 77.4 °F 75.9 °F 30.02 in ENE 2.3 mph 2.3 mph 95 % 0.00 in 0.0 W/m2 CLR
05:45 77.3 °F 75.8 °F 30.03 in East 3.5 mph 3.5 mph 95 % 0.00 in 0.0 W/m2 CLR
05:50 77.3 °F 75.8 °F 30.03 in SSE 2.3 mph 2.3 mph 95 % 0.00 in 0.0 W/m2 CLR
05:55 77.3 °F 75.8 °F 30.03 in SSE 2.3 mph 2.3 mph 95 % 0.00 in 0.0 W/m2 CLR
06:00 77.3 °F 75.8 °F 30.03 in SE 3.5 mph 3.5 mph 95 % 0.00 in 0.0 W/m2 CLR
06:05 77.3 °F 75.8 °F 30.03 in SE 1.2 mph 1.2 mph 95 % 0.00 in 0.0 W/m2 CLR
06:10 77.4 °F 75.9 °F 30.03 in East 3.5 mph 3.5 mph 95 % 0.00 in 0.0 W/m2 CLR
06:15 77.5 °F 76.0 °F 30.03 in East 4.6 mph 4.6 mph 95 % 0.00 in 0.0 W/m2 CLR
06:20 77.5 °F 76.0 °F 30.03 in East 1.2 mph 1.2 mph 95 % 0.00 in 0.0 W/m2 CLR
06:25 77.6 °F 76.1 °F 30.04 in East 2.3 mph 2.3 mph 95 % 0.00 in 0.0 W/m2 CLR
06:30 77.8 °F 76.3 °F 30.04 in SE 3.5 mph 3.5 mph 95 % 0.00 in 0.0 W/m2 CLR
06:35 78.1 °F 76.6 °F 30.04 in East 4.6 mph 4.6 mph 95 % 0.00 in 0.0 W/m2 CLR
06:40 78.3 °F 76.4 °F 30.04 in ENE 3.5 mph 3.5 mph 94 % 0.00 in 0.0 W/m2 CLR
06:45 78.3 °F 76.4 °F 30.04 in East 4.6 mph 4.6 mph 94 % 0.00 in 0.0 W/m2 CLR
06:50 78.4 °F 76.5 °F 30.04 in East 3.5 mph 3.5 mph 94 % 0.00 in 0.0 W/m2 CLR
06:55 78.4 °F 76.5 °F 30.05 in East 3.5 mph 3.5 mph 94 % 0.00 in 0.0 W/m2 CLR
07:00 78.5 °F 76.6 °F 30.05 in ENE 2.3 mph 2.3 mph 94 % 0.00 in 0.0 W/m2 CLR
07:05 78.5 °F 76.3 °F 30.05 in East 3.0 mph 3.0 mph 93 % 0.00 in 7.0 W/m2 CLR
07:10 78.6 °F 76.4 °F 30.05 in ENE 2.3 mph 2.3 mph 93 % 0.00 in 9.0 W/m2 CLR
07:15 78.8 °F 76.6 °F 30.05 in ESE 2.3 mph 2.3 mph 93 % 0.00 in 14.0 W/m2 CLR
07:20 78.9 °F 76.7 °F 30.06 in East 2.3 mph 2.3 mph 93 % 0.00 in 16.0 W/m2 CLR
07:25 79.0 °F 76.5 °F 30.06 in East 3.5 mph 3.5 mph 92 % 0.00 in 25.0 W/m2 BKN
07:30 79.1 °F 76.6 °F 30.06 in ESE 3.5 mph 3.5 mph 92 % 0.00 in 33.0 W/m2 BKN
07:35 79.3 °F 76.8 °F 30.06 in ENE 4.6 mph 4.6 mph 92 % 0.00 in 33.0 W/m2 BKN
07:40 79.6 °F 76.7 °F 30.06 in East 6.9 mph 6.9 mph 91 % 0.00 in 28.0 W/m2 BKN
07:45 79.9 °F 77.0 °F 30.06 in East 3.5 mph 3.5 mph 91 % 0.00 in 28.0 W/m2 BKN
07:50 80.2 °F 77.0 °F 30.06 in ESE 3.0 mph 3.0 mph 90 % 0.00 in 21.0 W/m2 BKN
07:55 80.4 °F 76.9 °F 30.06 in East 3.5 mph 3.5 mph 89 % 0.00 in 33.0 W/m2 BKN
08:00 80.6 °F 77.1 °F 30.06 in East 3.5 mph 3.5 mph 89 % 0.00 in 86.0 W/m2 BKN
08:05 81.4 °F 77.5 °F 30.06 in ENE 3.5 mph 3.5 mph 88 % 0.00 in 40.0 W/m2 BKN
Treasure Coast Weather
Compliments of Weather Underground - 2.25 mb

Script developed by  Jim McMurry - jmcmurry@mwt.net Adapted for the template by  Wim van der Kuil - Leuven-Template.eu

You find our weather info also at:

WeatherCloud

Weather Underground

Southeastern Weather Network

Citizen Weather Observer Program (CWOP)

HAMweather, WeatherForYou, PWS Weather

Anything Weather